Flight Track Log - Related Links

Times and Time Zones

All times are in EDT time to prevent confusion due to time zone crossing. See the CPZ5750 flight status page for this flight to view local times or setup timezone preferences in your user account.

Time Position Orientation Groundspeed Altitude Reporting Facility
EDT Latitude Longitude Course Direction KTS MPH feet Rate Location/Type
Mon 07:39:25 PM 42.8089 -73.8100 359° North 167 192 2,400  Level Boston Center
Mon 07:40:26 PM 42.8692 -73.8281 348° North 235 270 4,300 2,143 Climbing Boston Center
Mon 07:41:00 PM 42.9034 -74.3300 289° West  Level FlightAware Approximate
Mon 07:41:17 PM 42.8911 -73.9053 291° West 265 305 6,400  Level Boston Center
Mon 07:42:00 PM 42.9383 -74.4697 289° West  Level FlightAware Approximate
Mon 07:42:17 PM 42.9169 -74.0050 290° West 275 316 9,500  Level Boston Center
Mon 07:43:00 PM 42.9762 -74.6081 291° West  Level FlightAware Approximate
Mon 07:43:17 PM 42.9406 -74.1022 288° West 288 331 11,800  Level Boston Center
Mon 07:44:17 PM 42.9700 -74.2192 289° West 294 338 14,500 2,100 Climbing Boston Center
Mon 07:45:17 PM 42.9956 -74.3194 289° West 305 351 16,000 1,950 Climbing Boston Center
Mon 07:46:17 PM 43.0267 -74.4481 288° West 324 373 18,400 2,200 Climbing Boston Center
Mon 07:47:17 PM 43.0536 -74.5683 287° West 324 373 20,400 1,800 Climbing Boston Center
Mon 07:48:17 PM 43.1039 -74.6697 304° West 316 364 22,000 1,500 Climbing Boston Center
Mon 07:49:17 PM 43.2014 -74.6989 348° North 312 359 23,400 1,350 Climbing Boston Center
Mon 07:50:17 PM 43.3028 -74.7311 347° North 335 386 24,700 1,300 Climbing Boston Center
Mon 07:51:17 PM 43.4083 -74.7636 347° North 364 419 26,000 650 Climbing Boston Center
Mon 07:52:17 PM 43.5119 -74.7933 348° North 380 437 26,000  Level Boston Center
Mon 07:53:17 PM 43.6089 -74.8458 339° North 380 437 26,000  Level Boston Center
Mon 07:54:17 PM 43.6436 -74.9764 290° West 335 386 26,000  Level Boston Center
Mon 07:55:17 PM 43.6569 -75.1233 277° West 342 394 26,000  Level Boston Center
Mon 07:56:17 PM 43.6803 -75.2822 282° West 388 447 26,000  Level Boston Center
Mon 07:57:17 PM 43.7056 -75.4331 283° West 431 496 26,000  Level Boston Center
Mon 07:58:17 PM 43.7283 -75.5950 281° West 436 502 26,000  Level Boston Center
Mon 07:59:17 PM 43.7528 -75.7572 282° West 436 502 26,000  Level Boston Center
Mon 08:00:17 PM 43.7792 -75.9256 282° West 436 502 26,000  Level Boston Center
Mon 08:01:17 PM 43.8031 -76.0911 281° West 436 502 26,000  Level Boston Center
Mon 08:02:17 PM 43.8289 -76.2567 282° West 436 502 26,000  Level Boston Center
Mon 08:03:17 PM 43.8528 -76.4194 282° West 436 502 26,000  Level Boston Center
Mon 08:04:35 PM 43.8667 -76.6333 275° West 440 506 26,000  Level Toronto Center
Mon 08:05:35 PM 43.8833 -76.7833 279° West 440 506 26,000  Level Toronto Center
Mon 08:06:35 PM 43.9000 -76.9500 278° West 440 506 26,000  Level Toronto Center
Mon 08:07:35 PM 43.9167 -77.1333 277° West 440 506 26,000  Level Toronto Center
Mon 08:08:35 PM 43.9333 -77.3000 278° West 430 495 26,000  Level Toronto Center
Mon 08:09:35 PM 43.9667 -77.4333 289° West 420 483 26,000  Level Toronto Center
Mon 08:10:35 PM 43.9833 -77.6167 277° West 420 483 26,000  Level Toronto Center
Mon 08:11:35 PM 43.9833 -77.7833 270° West 430 495 26,000  Level Toronto Center
Mon 08:12:35 PM 44.0000 -77.9167 280° West 430 495 26,000  Level Toronto Center
Mon 08:13:35 PM 44.0167 -78.1000 277° West 420 483 26,000  Level Toronto Center
Mon 08:14:35 PM 44.0333 -78.2667 278° West 430 495 26,000  Level Toronto Center
Mon 08:15:35 PM 44.0500 -78.4333 278° West 440 506 26,000  Level Toronto Center
Mon 08:16:35 PM 44.0833 -78.5833 287° West 440 506 26,000  Level Toronto Center
Mon 08:17:35 PM 44.0833 -78.7667 270° West 440 506 26,000  Level Toronto Center
Mon 08:18:35 PM 44.1000 -78.9333 278° West 440 506 26,000  Level Toronto Center
Mon 08:19:35 PM 44.1167 -79.1000 278° West 440 506 26,000  Level Toronto Center
Mon 08:20:35 PM 44.1333 -79.2667 278° West 440 506 26,000  Level Toronto Center
Mon 08:21:35 PM 44.1500 -79.4167 279° West 440 506 26,000  Level Toronto Center
Mon 08:22:35 PM 44.1667 -79.6167 277° West 440 506 26,000  Level Toronto Center
Mon 08:23:35 PM 44.1667 -79.7667 270° West 440 506 26,000  Level Toronto Center
Mon 08:24:35 PM 44.1833 -79.9500 277° West 430 495 26,000  Level Toronto Center
Mon 08:25:35 PM 44.2000 -80.1000 279° West 430 495 26,000  Level Toronto Center
Mon 08:26:35 PM 44.2167 -80.2833 277° West 430 495 26,000  Level Toronto Center
Mon 08:27:35 PM 44.2333 -80.4500 278° West 430 495 26,000  Level Toronto Center
Mon 08:28:35 PM 44.2333 -80.6167 270° West 440 506 26,000  Level Toronto Center
Mon 08:29:35 PM 44.2500 -80.7667 279° West 440 506 26,000  Level Toronto Center
Mon 08:30:35 PM 44.2500 -80.9333 270° West 440 506 26,000  Level Toronto Center
Mon 08:31:35 PM 44.2667 -81.1167 277° West 440 506 26,000  Level Toronto Center
Mon 08:32:35 PM 44.2833 -81.2833 278° West 440 506 26,000  Level Toronto Center
Mon 08:33:35 PM 44.3000 -81.4667 277° West 440 506 26,000  Level Toronto Center
Mon 08:34:35 PM 44.3000 -81.6333 270° West 440 506 26,000  Level Toronto Center
Mon 08:35:35 PM 44.3167 -81.8000 278° West 430 495 26,000  Level Toronto Center
Mon 08:36:35 PM 44.3167 -81.9667 270° West 430 495 26,000  Level Toronto Center
Mon 08:37:35 PM 44.3333 -82.1500 277° West 430 495 26,000  Level Toronto Center
Mon 08:38:35 PM 44.3500 -82.2833 280° West 430 495 26,000 150 Level Toronto Center
Mon 08:39:35 PM 44.3667 -82.4833 277° West 430 495 26,300 600 Climbing Toronto Center
Mon 08:40:35 PM 44.3667 -82.6333 270° West 440 506 27,200 824 Climbing Toronto Center
Mon 08:41:17 PM 44.3808 -82.7317 281° West 435 501 27,700 808 Climbing Minneapolis Center
Mon 08:42:19 PM 44.3922 -82.9353 275° West 438 504 28,600 823 Climbing Minneapolis Center
Mon 08:43:21 PM 44.4006 -83.1050 274° West 439 505 29,400 677 Climbing Minneapolis Center
Mon 08:44:23 PM 44.4097 -83.2744 274° West 439 505 30,000 290 Climbing Minneapolis Center
Mon 08:45:25 PM 44.4194 -83.4439 275° West 439 505 30,000  Level Minneapolis Center
Mon 08:46:27 PM 44.4258 -83.6133 273° West 439 505 30,000  Level Minneapolis Center
Mon 08:47:29 PM 44.4356 -83.7822 275° West 437 503 30,000  Level Minneapolis Center
Mon 08:48:31 PM 44.4442 -83.9844 273° West 437 503 30,000  Level Minneapolis Center
Mon 08:49:33 PM 44.4531 -84.1539 274° West 437 503 30,000  Level Minneapolis Center
Mon 08:50:35 PM 44.4592 -84.3239 273° West 438 504 30,000  Level Minneapolis Center
Mon 08:51:49 PM 44.4656 -84.4958 273° West 443 510 30,000  Level Minneapolis Center
Mon 08:53:04 PM 44.4750 -84.7342 273° West 440 506 30,000  Level Minneapolis Center
Mon 08:54:06 PM 44.4833 -84.9392 273° West 441 507 30,000  Level Minneapolis Center
Mon 08:55:09 PM 44.4906 -85.1094 273° West 438 504 30,000  Level Minneapolis Center
Mon 08:56:10 PM 44.4950 -85.2450 273° West 437 503 30,000  Level Minneapolis Center
Mon 08:57:13 PM 44.5014 -85.4492 273° West 437 503 30,000  Level Minneapolis Center
Mon 08:58:15 PM 44.5064 -85.6181 272° West 435 501 30,000  Level Minneapolis Center
Mon 08:59:17 PM 44.5114 -85.7903 272° West 438 504 30,000  Level Minneapolis Center
Mon 09:00:19 PM 44.5158 -85.9633 272° West 440 506 30,000  Level Minneapolis Center
Mon 09:01:21 PM 44.5194 -86.1361 272° West 440 506 30,000  Level Minneapolis Center
Mon 09:02:22 PM 44.5244 -86.3081 272° West 439 505 30,000  Level Minneapolis Center
Mon 09:03:25 PM 44.5294 -86.5147 272° West 439 505 30,000  Level Minneapolis Center
Mon 09:04:27 PM 44.5336 -86.6864 272° West 440 506 30,000  Level Minneapolis Center
Mon 09:05:29 PM 44.5367 -86.8578 271° West 440 506 30,000  Level Minneapolis Center
Mon 09:06:31 PM 44.5406 -87.0292 272° West 440 506 30,000  Level Minneapolis Center
Mon 09:07:33 PM 44.5433 -87.2011 271° West 442 509 30,000  Level Minneapolis Center
Mon 09:08:35 PM 44.5464 -87.3714 272° West 439 505 30,000  Level Minneapolis Center
Mon 09:09:37 PM 44.5497 -87.5767 271° West 437 503 30,000  Level Minneapolis Center
Mon 09:10:39 PM 44.5511 -87.7464 271° West 437 503 30,000  Level Minneapolis Center
Mon 09:11:41 PM 44.5531 -87.9281 271° West 434 499 30,000  Level Minneapolis Center
Mon 09:12:43 PM 44.5547 -88.0956 271° West 432 497 30,000  Level Minneapolis Center
Mon 09:13:45 PM 44.5642 -88.2636 275° West 435 501 30,000  Level Minneapolis Center
Mon 09:14:47 PM 44.5825 -88.4306 279° West 435 501 30,000  Level Minneapolis Center
Mon 09:15:48 PM 44.5986 -88.5717 279° West 439 505 30,000  Level Minneapolis Center
Mon 09:16:51 PM 44.6261 -88.7964 280° West 439 505 30,000  Level Minneapolis Center
Mon 09:17:53 PM 44.6442 -88.9650 279° West 438 504 30,000  Level Minneapolis Center
Mon 09:19:07 PM 44.6628 -89.1339 279° West 438 504 30,000  Level Minneapolis Center
Mon 09:20:09 PM 44.6839 -89.3308 279° West 438 504 30,000  Level Minneapolis Center
Mon 09:21:11 PM 44.7061 -89.5297 279° West 441 507 30,000  Level Minneapolis Center
Mon 09:22:13 PM 44.7242 -89.6994 279° West 441 507 30,000  Level Minneapolis Center
Mon 09:23:15 PM 44.7422 -89.8689 279° West 440 506 30,000  Level Minneapolis Center
Mon 09:24:28 PM 44.7592 -90.0375 278° West 437 503 30,000  Level Minneapolis Center
Mon 09:25:31 PM 44.7789 -90.2358 278° West 439 505 30,000  Level Minneapolis Center
Mon 09:26:33 PM 44.7992 -90.4339 278° West 440 506 30,000  Level Minneapolis Center
Mon 09:27:34 PM 44.8197 -90.5831 281° West 438 504 30,000  Level Minneapolis Center
Mon 09:28:36 PM 44.8436 -90.7528 281° West 443 510 30,000  Level Minneapolis Center
Mon 09:29:50 PM 44.8706 -90.9556 281° West 441 507 30,000 -44 Level Minneapolis Center
Mon 09:30:52 PM 44.8992 -91.1583 281° West 441 507 29,900 -1,306 Descending Minneapolis Center
Mon 09:31:54 PM 44.9214 -91.3267 281° West 441 507 27,300 -2,471 Descending Minneapolis Center
Mon 09:33:08 PM 44.9439 -91.4867 281° West 427 491 24,300 -2,779 Descending Minneapolis Center
Mon 09:34:10 PM 44.9678 -91.6678 281° West 401 461 21,000 -3,194 Descending Minneapolis Center
Mon 09:35:12 PM 44.9925 -91.8461 281° West 389 448 17,700 -2,927 Descending Minneapolis Center
Mon 09:36:13 PM 45.0119 -91.9922 281° West 380 437 15,000 -2,537 Descending Minneapolis Center
Mon 09:37:15 PM 45.0294 -92.1311 280° West 363 418 12,500 -1,935 Descending Minneapolis Center
Mon 09:38:17 PM 45.0461 -92.2664 280° West 354 407 11,000 -732 Descending Minneapolis Center
Mon 09:39:18 PM 45.0308 -92.4050 261° West 359 413 11,000 -98 Level Minneapolis Center
Mon 09:40:20 PM 44.9994 -92.5372 251° West 359 413 10,800 -532 Descending Minneapolis Center
Mon 09:41:22 PM 44.9419 -92.6308 229° Southwest 314 361 9,900 -1,220 Descending Minneapolis Center
Mon 09:42:23 PM 44.8906 -92.7161 230° Southwest 288 331 8,300 -1,644 Descending Minneapolis Center
Mon 09:43:37 PM 44.8319 -92.8158 230° Southwest 276 318 6,200 -1,368 Descending Minneapolis Center
Mon 09:44:39 PM 44.7772 -92.9125 231° Southwest 262 302 5,200 -1,065 Descending Minneapolis Center
Mon 09:45:41 PM 44.7867 -92.9989 279° West 228 262 4,000 -1,161 Descending Minneapolis Center

Login

Don't have an account? Register now (free) for customized features, flight alerts, and more!